sensor_id;sensor_type;location;lat;lon;timestamp;pressure;altitude;pressure_sealevel;temperature;humidity
60427;BME280;46274;47.168;27.604;2023-05-29T00:02:16;99907.34;;;15.25;58.78
60427;BME280;46274;47.168;27.604;2023-05-29T00:08:19;100038.84;;;15.62;60.41
60427;BME280;46274;47.168;27.604;2023-05-29T00:14:24;99861.19;;;15.03;58.69
60427;BME280;46274;47.168;27.604;2023-05-29T00:20:27;100006.28;;;15.80;59.14
60427;BME280;46274;47.168;27.604;2023-05-29T00:26:31;99791.91;;;14.31;59.21
60427;BME280;46274;47.168;27.604;2023-05-29T00:32:33;100020.13;;;15.39;61.37
60427;BME280;46274;47.168;27.604;2023-05-29T00:38:39;100024.53;;;15.53;60.84
60427;BME280;46274;47.168;27.604;2023-05-29T00:44:42;99974.13;;;15.09;60.61
60427;BME280;46274;47.168;27.604;2023-05-29T00:50:44;100024.50;;;15.20;61.09
60427;BME280;46274;47.168;27.604;2023-05-29T00:56:47;100022.84;;;15.32;60.74
60427;BME280;46274;47.168;27.604;2023-05-29T01:02:55;100023.03;;;15.31;61.32
60427;BME280;46274;47.168;27.604;2023-05-29T01:09:00;100028.06;;;15.20;61.18
60427;BME280;46274;47.168;27.604;2023-05-29T01:21:42;100021.56;;;15.08;60.31
60427;BME280;46274;47.168;27.604;2023-05-29T01:27:41;99815.47;;;13.29;62.86
60427;BME280;46274;47.168;27.604;2023-05-29T01:33:59;99999.06;;;14.79;61.86
60427;BME280;46274;47.168;27.604;2023-05-29T01:40:05;100045.28;;;15.14;60.81
60427;BME280;46274;47.168;27.604;2023-05-29T01:46:09;99846.72;;;13.88;60.87
60427;BME280;46274;47.168;27.604;2023-05-29T01:52:11;100009.50;;;14.69;61.20
60427;BME280;46274;47.168;27.604;2023-05-29T01:58:16;100055.16;;;15.15;60.98
60427;BME280;46274;47.168;27.604;2023-05-29T02:04:20;100051.13;;;14.98;61.57
60427;BME280;46274;47.168;27.604;2023-05-29T02:10:24;100065.56;;;14.92;61.54
60427;BME280;46274;47.168;27.604;2023-05-29T02:16:27;100050.91;;;14.93;62.04
60427;BME280;46274;47.168;27.604;2023-05-29T02:22:32;99944.44;;;14.11;61.88
60427;BME280;46274;47.168;27.604;2023-05-29T02:28:36;100054.66;;;14.92;61.43
60427;BME280;46274;47.168;27.604;2023-05-29T02:34:38;100051.34;;;14.96;61.32
60427;BME280;46274;47.168;27.604;2023-05-29T02:40:41;100022.09;;;14.70;61.05
60427;BME280;46274;47.168;27.604;2023-05-29T02:46:43;100070.25;;;15.11;60.75
60427;BME280;46274;47.168;27.604;2023-05-29T02:52:46;100071.50;;;15.15;61.00
60427;BME280;46274;47.168;27.604;2023-05-29T02:58:54;100062.69;;;15.07;61.38
60427;BME280;46274;47.168;27.604;2023-05-29T03:04:59;99934.47;;;14.25;61.14
60427;BME280;46274;47.168;27.604;2023-05-29T03:11:12;100048.38;;;14.85;61.24
60427;BME280;46274;47.168;27.604;2023-05-29T03:17:16;100036.00;;;14.47;62.16
60427;BME280;46274;47.168;27.604;2023-05-29T03:23:29;100049.88;;;15.00;61.04
60427;BME280;46274;47.168;27.604;2023-05-29T03:29:32;100083.75;;;15.26;60.79
60427;BME280;46274;47.168;27.604;2023-05-29T03:35:34;100091.91;;;15.19;61.61
60427;BME280;46274;47.168;27.604;2023-05-29T03:41:35;100102.84;;;15.26;61.17
60427;BME280;46274;47.168;27.604;2023-05-29T03:47:38;100099.69;;;15.36;61.13
60427;BME280;46274;47.168;27.604;2023-05-29T03:53:40;100103.91;;;15.32;60.58
60427;BME280;46274;47.168;27.604;2023-05-29T03:59:42;100086.25;;;15.27;60.68
60427;BME280;46274;47.168;27.604;2023-05-29T04:05:44;100099.72;;;15.42;61.51
60427;BME280;46274;47.168;27.604;2023-05-29T04:11:47;100098.25;;;15.40;60.74
60427;BME280;46274;47.168;27.604;2023-05-29T04:17:49;100122.69;;;15.81;60.58
60427;BME280;46274;47.168;27.604;2023-05-29T04:23:52;100128.16;;;16.01;60.20
60427;BME280;46274;47.168;27.604;2023-05-29T04:29:55;100119.94;;;16.28;59.30
60427;BME280;46274;47.168;27.604;2023-05-29T04:35:58;100102.50;;;16.29;59.25
60427;BME280;46274;47.168;27.604;2023-05-29T04:42:02;100100.28;;;16.71;58.26
60427;BME280;46274;47.168;27.604;2023-05-29T04:48:05;100083.13;;;16.95;56.94
60427;BME280;46274;47.168;27.604;2023-05-29T04:54:08;100112.78;;;17.43;56.44
60427;BME280;46274;47.168;27.604;2023-05-29T05:00:13;100105.41;;;18.01;55.43
60427;BME280;46274;47.168;27.604;2023-05-29T05:06:16;99998.69;;;17.81;54.21
60427;BME280;46274;47.168;27.604;2023-05-29T05:12:36;100127.91;;;18.53;54.08
60427;BME280;46274;47.168;27.604;2023-05-29T05:18:55;100076.22;;;18.68;52.54
60427;BME280;46274;47.168;27.604;2023-05-29T05:24:58;100129.22;;;19.36;51.86
60427;BME280;46274;47.168;27.604;2023-05-29T05:31:02;100041.91;;;18.96;52.06
60427;BME280;46274;47.168;27.604;2023-05-29T05:37:11;100112.91;;;19.11;50.31
60427;BME280;46274;47.168;27.604;2023-05-29T05:43:14;100086.63;;;19.87;49.98
60427;BME280;46274;47.168;27.604;2023-05-29T05:49:20;100041.34;;;18.76;49.72
60427;BME280;46274;47.168;27.604;2023-05-29T05:55:25;100145.31;;;19.81;49.40
60427;BME280;46274;47.168;27.604;2023-05-29T06:01:32;100006.72;;;19.47;48.62
60427;BME280;46274;47.168;27.604;2023-05-29T06:07:36;100049.22;;;20.21;48.00
60427;BME280;46274;47.168;27.604;2023-05-29T06:13:39;100064.72;;;20.63;47.10
60427;BME280;46274;47.168;27.604;2023-05-29T06:19:51;100134.63;;;21.54;46.19
60427;BME280;46274;47.168;27.604;2023-05-29T06:25:59;100138.78;;;21.57;44.95
60427;BME280;46274;47.168;27.604;2023-05-29T06:32:04;100006.53;;;20.71;45.06
60427;BME280;46274;47.168;27.604;2023-05-29T06:38:16;99978.09;;;19.78;45.22
60427;BME280;46274;47.168;27.604;2023-05-29T06:44:22;100127.34;;;21.37;43.60
60427;BME280;46274;47.168;27.604;2023-05-29T06:50:24;100044.75;;;19.85;45.43
60427;BME280;46274;47.168;27.604;2023-05-29T06:56:26;100101.47;;;20.21;46.08
60427;BME280;46274;47.168;27.604;2023-05-29T07:02:30;100102.34;;;21.26;43.95
60427;BME280;46274;47.168;27.604;2023-05-29T07:08:34;100117.53;;;22.37;44.21
60427;BME280;46274;47.168;27.604;2023-05-29T07:14:36;100124.78;;;22.09;44.34
60427;BME280;46274;47.168;27.604;2023-05-29T07:20:41;100121.53;;;22.46;41.75
60427;BME280;46274;47.168;27.604;2023-05-29T07:26:44;100088.41;;;22.46;41.56
60427;BME280;46274;47.168;27.604;2023-05-29T07:32:46;100134.00;;;21.52;42.57
60427;BME280;46274;47.168;27.604;2023-05-29T07:38:51;100120.56;;;20.87;41.98
60427;BME280;46274;47.168;27.604;2023-05-29T07:44:54;100101.63;;;21.93;41.05
60427;BME280;46274;47.168;27.604;2023-05-29T07:51:00;100102.16;;;22.24;40.49
60427;BME280;46274;47.168;27.604;2023-05-29T07:57:03;100097.75;;;22.62;39.96
60427;BME280;46274;47.168;27.604;2023-05-29T08:03:06;99996.97;;;22.64;39.16
60427;BME280;46274;47.168;27.604;2023-05-29T08:09:21;100020.50;;;22.94;38.58
60427;BME280;46274;47.168;27.604;2023-05-29T08:15:24;100130.59;;;23.51;38.04
60427;BME280;46274;47.168;27.604;2023-05-29T08:21:28;100023.53;;;22.27;38.53
60427;BME280;46274;47.168;27.604;2023-05-29T08:27:37;100016.81;;;23.38;37.11
60427;BME280;46274;47.168;27.604;2023-05-29T08:33:43;100107.25;;;23.69;35.74
60427;BME280;46274;47.168;27.604;2023-05-29T08:39:45;100110.75;;;23.55;36.21
60427;BME280;46274;47.168;27.604;2023-05-29T08:45:55;100070.25;;;23.43;34.75
60427;BME280;46274;47.168;27.604;2023-05-29T08:52:10;100093.28;;;22.39;35.54
60427;BME280;46274;47.168;27.604;2023-05-29T08:58:17;100000.69;;;23.62;35.29
60427;BME280;46274;47.168;27.604;2023-05-29T09:04:21;99995.81;;;22.60;35.79
60427;BME280;46274;47.168;27.604;2023-05-29T09:10:23;100074.44;;;24.10;35.94
60427;BME280;46274;47.168;27.604;2023-05-29T09:16:27;100048.63;;;25.10;35.23
60427;BME280;46274;47.168;27.604;2023-05-29T09:22:29;99968.22;;;23.42;33.92
60427;BME280;46274;47.168;27.604;2023-05-29T09:28:31;99929.44;;;22.77;35.38
60427;BME280;46274;47.168;27.604;2023-05-29T09:34:34;100049.16;;;23.37;35.11
60427;BME280;46274;47.168;27.604;2023-05-29T09:40:39;100052.88;;;23.75;33.83
60427;BME280;46274;47.168;27.604;2023-05-29T09:46:41;100020.44;;;22.89;34.10
60427;BME280;46274;47.168;27.604;2023-05-29T09:52:48;100046.63;;;24.32;33.55
60427;BME280;46274;47.168;27.604;2023-05-29T09:58:56;100039.28;;;24.53;34.01
60427;BME280;46274;47.168;27.604;2023-05-29T10:04:58;99978.63;;;23.67;33.23
60427;BME280;46274;47.168;27.604;2023-05-29T10:11:02;100026.72;;;23.28;33.11
60427;BME280;46274;47.168;27.604;2023-05-29T10:17:08;100007.78;;;23.80;33.80
60427;BME280;46274;47.168;27.604;2023-05-29T10:23:12;99912.06;;;23.41;34.10
60427;BME280;46274;47.168;27.604;2023-05-29T10:35:42;99912.44;;;23.18;32.22
60427;BME280;46274;47.168;27.604;2023-05-29T10:41:48;99999.22;;;23.81;32.17
60427;BME280;46274;47.168;27.604;2023-05-29T10:47:52;100002.34;;;23.58;32.76
60427;BME280;46274;47.168;27.604;2023-05-29T10:53:57;99948.03;;;24.36;33.24
60427;BME280;46274;47.168;27.604;2023-05-29T11:00:02;99993.22;;;25.82;32.81
60427;BME280;46274;47.168;27.604;2023-05-29T11:06:21;99982.59;;;26.20;32.22
60427;BME280;46274;47.168;27.604;2023-05-29T11:12:25;99957.16;;;25.92;32.65
60427;BME280;46274;47.168;27.604;2023-05-29T11:18:43;99980.81;;;24.50;32.51
60427;BME280;46274;47.168;27.604;2023-05-29T11:24:48;99918.06;;;25.01;31.53
60427;BME280;46274;47.168;27.604;2023-05-29T11:30:53;99937.94;;;24.05;30.46
60427;BME280;46274;47.168;27.604;2023-05-29T11:37:00;99959.47;;;24.45;29.26
60427;BME280;46274;47.168;27.604;2023-05-29T11:43:04;99914.75;;;25.45;29.72
60427;BME280;46274;47.168;27.604;2023-05-29T11:49:06;99911.34;;;26.60;30.06
60427;BME280;46274;47.168;27.604;2023-05-29T11:55:08;99807.44;;;24.59;29.68
60427;BME280;46274;47.168;27.604;2023-05-29T12:01:10;99920.81;;;24.91;29.64
60427;BME280;46274;47.168;27.604;2023-05-29T12:07:19;99786.41;;;24.58;30.01
60427;BME280;46274;47.168;27.604;2023-05-29T12:13:21;99892.81;;;25.03;30.22
60427;BME280;46274;47.168;27.604;2023-05-29T12:19:26;99923.09;;;25.25;30.32
60427;BME280;46274;47.168;27.604;2023-05-29T12:25:28;99891.66;;;25.86;29.64
60427;BME280;46274;47.168;27.604;2023-05-29T12:31:30;99875.03;;;24.53;29.40
60427;BME280;46274;47.168;27.604;2023-05-29T12:37:34;99908.34;;;25.24;28.68
60427;BME280;46274;47.168;27.604;2023-05-29T12:43:39;99899.50;;;25.38;28.66
60427;BME280;46274;47.168;27.604;2023-05-29T12:49:42;99890.88;;;25.09;29.99
60427;BME280;46274;47.168;27.604;2023-05-29T12:55:46;99837.09;;;24.69;29.23
60427;BME280;46274;47.168;27.604;2023-05-29T13:01:52;99825.16;;;25.14;29.40
60427;BME280;46274;47.168;27.604;2023-05-29T13:07:57;99873.69;;;25.37;29.76
60427;BME280;46274;47.168;27.604;2023-05-29T13:14:05;99861.75;;;25.47;27.97
60427;BME280;46274;47.168;27.604;2023-05-29T13:20:12;99822.66;;;25.38;29.07
60427;BME280;46274;47.168;27.604;2023-05-29T13:26:18;99814.34;;;25.43;28.76
60427;BME280;46274;47.168;27.604;2023-05-29T13:32:24;99790.28;;;24.77;27.85
60427;BME280;46274;47.168;27.604;2023-05-29T13:38:26;99859.84;;;25.27;28.81
60427;BME280;46274;47.168;27.604;2023-05-29T13:44:28;99762.53;;;25.03;28.12
60427;BME280;46274;47.168;27.604;2023-05-29T13:50:33;99795.13;;;25.62;28.50
60427;BME280;46274;47.168;27.604;2023-05-29T13:56:35;99751.78;;;24.61;28.58
60427;BME280;46274;47.168;27.604;2023-05-29T14:02:37;99786.63;;;25.33;28.26
60427;BME280;46274;47.168;27.604;2023-05-29T14:08:40;99807.41;;;25.41;29.17
60427;BME280;46274;47.168;27.604;2023-05-29T14:14:43;99777.72;;;25.41;27.92
60427;BME280;46274;47.168;27.604;2023-05-29T14:20:46;99823.97;;;26.31;27.97
60427;BME280;46274;47.168;27.604;2023-05-29T14:26:52;99732.63;;;24.90;28.03
60427;BME280;46274;47.168;27.604;2023-05-29T14:32:58;99819.22;;;25.87;27.56
60427;BME280;46274;47.168;27.604;2023-05-29T14:39:00;99754.78;;;24.90;28.04
60427;BME280;46274;47.168;27.604;2023-05-29T14:45:03;99742.63;;;24.45;28.59
60427;BME280;46274;47.168;27.604;2023-05-29T14:51:05;99808.22;;;25.41;28.45
60427;BME280;46274;47.168;27.604;2023-05-29T14:57:08;99810.72;;;25.48;27.98
60427;BME280;46274;47.168;27.604;2023-05-29T15:03:12;99611.34;;;24.20;27.79
60427;BME280;46274;47.168;27.604;2023-05-29T15:09:18;99799.38;;;25.09;27.72
60427;BME280;46274;47.168;27.604;2023-05-29T15:15:27;99799.50;;;25.74;28.18
60427;BME280;46274;47.168;27.604;2023-05-29T15:22:05;99810.19;;;25.41;27.72
60427;BME280;46274;47.168;27.604;2023-05-29T15:28:07;99814.63;;;25.01;27.40
60427;BME280;46274;47.168;27.604;2023-05-29T15:34:17;99742.31;;;24.31;27.85
60427;BME280;46274;47.168;27.604;2023-05-29T15:40:20;99792.22;;;24.87;27.70
60427;BME280;46274;47.168;27.604;2023-05-29T15:46:26;99804.66;;;25.31;27.72
60427;BME280;46274;47.168;27.604;2023-05-29T15:52:32;99761.72;;;24.97;28.18
60427;BME280;46274;47.168;27.604;2023-05-29T15:58:55;99783.06;;;24.66;28.61
60427;BME280;46274;47.168;27.604;2023-05-29T16:04:58;99752.28;;;24.37;27.53
60427;BME280;46274;47.168;27.604;2023-05-29T16:11:09;99764.25;;;24.73;27.70
60427;BME280;46274;47.168;27.604;2023-05-29T16:17:11;99801.34;;;25.18;28.30
60427;BME280;46274;47.168;27.604;2023-05-29T16:23:14;99714.38;;;24.68;28.04
60427;BME280;46274;47.168;27.604;2023-05-29T16:29:16;99780.88;;;24.58;27.10
60427;BME280;46274;47.168;27.604;2023-05-29T16:35:19;99800.78;;;24.70;28.66
60427;BME280;46274;47.168;27.604;2023-05-29T16:41:21;99718.41;;;23.79;29.76
60427;BME280;46274;47.168;27.604;2023-05-29T16:47:24;99820.47;;;24.58;29.96
60427;BME280;46274;47.168;27.604;2023-05-29T16:53:27;99740.91;;;24.23;30.71
60427;BME280;46274;47.168;27.604;2023-05-29T16:59:31;99784.13;;;24.29;31.81
60427;BME280;46274;47.168;27.604;2023-05-29T17:05:34;99801.19;;;23.95;32.84
60427;BME280;46274;47.168;27.604;2023-05-29T17:11:37;99746.25;;;23.62;35.04
60427;BME280;46274;47.168;27.604;2023-05-29T17:17:43;99731.69;;;23.77;35.18
60427;BME280;46274;47.168;27.604;2023-05-29T17:23:45;99740.66;;;23.46;35.32
60427;BME280;46274;47.168;27.604;2023-05-29T17:29:59;99814.88;;;22.85;36.91
60427;BME280;46274;47.168;27.604;2023-05-29T17:36:04;99803.81;;;23.65;36.06
60427;BME280;46274;47.168;27.604;2023-05-29T17:42:09;99775.13;;;22.54;37.08
60427;BME280;46274;47.168;27.604;2023-05-29T17:48:15;99681.34;;;22.64;36.32
60427;BME280;46274;47.168;27.604;2023-05-29T17:54:20;99728.19;;;22.91;37.06
60427;BME280;46274;47.168;27.604;2023-05-29T18:00:22;99792.50;;;23.19;37.11
60427;BME280;46274;47.168;27.604;2023-05-29T18:06:29;99782.81;;;22.84;38.07
60427;BME280;46274;47.168;27.604;2023-05-29T18:12:31;99830.53;;;21.98;41.38
60427;BME280;46274;47.168;27.604;2023-05-29T18:18:47;99842.81;;;22.07;41.31
60427;BME280;46274;47.168;27.604;2023-05-29T18:24:56;99748.34;;;21.12;42.34
60427;BME280;46274;47.168;27.604;2023-05-29T18:30:58;99847.28;;;21.69;41.70
60427;BME280;46274;47.168;27.604;2023-05-29T18:37:00;99846.25;;;19.12;46.78
60427;BME280;46274;47.168;27.604;2023-05-29T18:43:02;99738.31;;;20.04;43.67
60427;BME280;46274;47.168;27.604;2023-05-29T18:49:07;99820.59;;;18.95;46.47
60427;BME280;46274;47.168;27.604;2023-05-29T18:55:11;99885.72;;;20.58;43.64
60427;BME280;46274;47.168;27.604;2023-05-29T19:01:14;99850.97;;;20.28;43.85
60427;BME280;46274;47.168;27.604;2023-05-29T19:07:40;99806.75;;;19.02;46.83
60427;BME280;46274;47.168;27.604;2023-05-29T19:13:43;99891.44;;;19.75;46.07
60427;BME280;46274;47.168;27.604;2023-05-29T19:19:48;99885.78;;;19.23;46.95
60427;BME280;46274;47.168;27.604;2023-05-29T19:25:50;99886.16;;;19.50;46.47
60427;BME280;46274;47.168;27.604;2023-05-29T19:31:57;99895.31;;;18.85;48.06
60427;BME280;46274;47.168;27.604;2023-05-29T19:37:59;99806.78;;;18.71;46.26
60427;BME280;46274;47.168;27.604;2023-05-29T19:44:03;99908.00;;;18.19;49.49
60427;BME280;46274;47.168;27.604;2023-05-29T19:50:08;99872.06;;;17.54;51.21
60427;BME280;46274;47.168;27.604;2023-05-29T19:56:10;99900.97;;;18.72;47.83
60427;BME280;46274;47.168;27.604;2023-05-29T20:02:14;99905.97;;;16.84;53.02
60427;BME280;46274;47.168;27.604;2023-05-29T20:08:17;99862.34;;;17.95;49.55
60427;BME280;46274;47.168;27.604;2023-05-29T20:14:19;99839.34;;;17.40;49.86
60427;BME280;46274;47.168;27.604;2023-05-29T20:20:21;99799.00;;;17.29;50.10
60427;BME280;46274;47.168;27.604;2023-05-29T20:26:24;99766.63;;;16.83;50.53
60427;BME280;46274;47.168;27.604;2023-05-29T20:32:27;99822.97;;;16.90;50.92
60427;BME280;46274;47.168;27.604;2023-05-29T20:38:30;99808.56;;;17.02;49.94
60427;BME280;46274;47.168;27.604;2023-05-29T20:44:34;99838.88;;;17.00;50.69
60427;BME280;46274;47.168;27.604;2023-05-29T20:50:37;99833.16;;;16.83;50.77
60427;BME280;46274;47.168;27.604;2023-05-29T20:56:40;99830.78;;;17.12;49.50
60427;BME280;46274;47.168;27.604;2023-05-29T21:02:44;99885.84;;;15.88;54.58
60427;BME280;46274;47.168;27.604;2023-05-29T21:08:46;99850.25;;;16.72;51.55
60427;BME280;46274;47.168;27.604;2023-05-29T21:14:49;99772.72;;;15.96;51.77
60427;BME280;46274;47.168;27.604;2023-05-29T21:20:51;99865.84;;;16.40;52.35
60427;BME280;46274;47.168;27.604;2023-05-29T21:26:54;99773.69;;;14.98;55.93
60427;BME280;46274;47.168;27.604;2023-05-29T21:33:00;99858.63;;;15.42;55.71
60427;BME280;46274;47.168;27.604;2023-05-29T21:39:03;99864.56;;;15.97;54.09
60427;BME280;46274;47.168;27.604;2023-05-29T21:45:06;99751.81;;;15.12;54.82
60427;BME280;46274;47.168;27.604;2023-05-29T21:51:09;99739.91;;;14.93;54.97
60427;BME280;46274;47.168;27.604;2023-05-29T21:57:14;99857.41;;;16.41;52.47
60427;BME280;46274;47.168;27.604;2023-05-29T22:03:17;99767.41;;;15.69;53.07
60427;BME280;46274;47.168;27.604;2023-05-29T22:09:21;99867.22;;;16.17;53.10
60427;BME280;46274;47.168;27.604;2023-05-29T22:15:24;99854.50;;;15.91;54.25
60427;BME280;46274;47.168;27.604;2023-05-29T22:21:29;99855.59;;;15.77;54.67
60427;BME280;46274;47.168;27.604;2023-05-29T22:27:32;99717.22;;;14.99;54.36
60427;BME280;46274;47.168;27.604;2023-05-29T22:33:35;99795.25;;;15.26;54.92
60427;BME280;46274;47.168;27.604;2023-05-29T22:39:37;99830.69;;;14.20;59.43
60427;BME280;46274;47.168;27.604;2023-05-29T22:45:43;99856.09;;;14.47;59.31
60427;BME280;46274;47.168;27.604;2023-05-29T22:51:48;99742.44;;;14.88;55.23
60427;BME280;46274;47.168;27.604;2023-05-29T22:57:53;99834.34;;;15.00;56.39
60427;BME280;46274;47.168;27.604;2023-05-29T23:03:56;99848.94;;;14.39;58.42
60427;BME280;46274;47.168;27.604;2023-05-29T23:09:59;99825.56;;;13.90;60.02
60427;BME280;46274;47.168;27.604;2023-05-29T23:16:02;99860.31;;;13.88;60.70
60427;BME280;46274;47.168;27.604;2023-05-29T23:22:06;99792.25;;;13.88;59.07
60427;BME280;46274;47.168;27.604;2023-05-29T23:28:08;99811.81;;;14.18;57.41
60427;BME280;46274;47.168;27.604;2023-05-29T23:34:11;99857.16;;;14.46;57.07
60427;BME280;46274;47.168;27.604;2023-05-29T23:40:13;99864.94;;;13.18;62.87
60427;BME280;46274;47.168;27.604;2023-05-29T23:46:16;99783.47;;;12.47;63.19
60427;BME280;46274;47.168;27.604;2023-05-29T23:52:19;99864.34;;;13.92;60.24
60427;BME280;46274;47.168;27.604;2023-05-29T23:58:21;99869.22;;;14.17;58.51
